createdAt,value
2023-03-30T00:00:35.532Z,12.37
2023-03-30T00:06:42.404Z,12.64
2023-03-30T00:09:44.060Z,12.63
2023-03-30T00:12:47.181Z,12.53
2023-03-30T00:15:49.368Z,12.48
2023-03-30T00:18:50.805Z,12.44
2023-03-30T00:21:52.345Z,12.46
2023-03-30T00:24:54.085Z,12.69
2023-03-30T00:27:55.819Z,12.73
2023-03-30T00:30:57.407Z,12.95
2023-03-30T00:33:58.906Z,12.88
2023-03-30T00:37:00.392Z,12.80
2023-03-30T00:40:01.834Z,12.58
2023-03-30T00:43:04.936Z,12.47
2023-03-30T00:46:06.480Z,12.46
2023-03-30T00:49:09.408Z,12.27
2023-03-30T00:52:11.224Z,12.18
2023-03-30T00:55:12.846Z,11.95
2023-03-30T00:58:15.594Z,11.87
2023-03-30T01:01:18.892Z,11.64
2023-03-30T01:04:20.817Z,11.60
2023-03-30T01:07:24.237Z,11.61
2023-03-30T01:10:26.034Z,11.76
2023-03-30T01:13:28.687Z,11.80
2023-03-30T01:17:01.647Z,11.89
2023-03-30T01:20:21.097Z,11.63
2023-03-30T01:23:47.153Z,11.44
2023-03-30T01:27:03.274Z,11.72
2023-03-30T01:30:32.627Z,11.79
2023-03-30T01:34:25.053Z,11.83
2023-03-30T01:38:03.986Z,11.71
2023-03-30T01:41:31.363Z,11.59
2023-03-30T01:45:07.079Z,11.56
2023-03-30T01:48:14.479Z,11.38
2023-03-30T01:51:21.492Z,11.37
2023-03-30T01:54:24.011Z,11.28
2023-03-30T01:57:30.268Z,11.35
2023-03-30T02:00:32.090Z,11.23
2023-03-30T02:03:36.327Z,11.17
2023-03-30T02:06:40.766Z,11.12
2023-03-30T02:09:42.292Z,11.18
2023-03-30T02:12:44.802Z,11.27
2023-03-30T02:15:51.634Z,11.30
2023-03-30T02:18:54.638Z,11.24
2023-03-30T02:21:56.287Z,11.29
2023-03-30T02:24:58.390Z,11.29
2023-03-30T02:28:00.184Z,11.19
2023-03-30T02:31:01.922Z,11.11
2023-03-30T02:34:12.706Z,11.15
2023-03-30T02:37:48.812Z,11.14
2023-03-30T02:41:17.277Z,11.11
2023-03-30T02:44:41.032Z,11.22
2023-03-30T02:47:46.306Z,11.06
2023-03-30T02:51:09.430Z,11.07
2023-03-30T02:54:28.129Z,11.01
2023-03-30T02:57:41.624Z,11.10
2023-03-30T03:01:09.846Z,10.93
2023-03-30T03:04:11.574Z,10.82
2023-03-30T03:07:13.222Z,10.75
2023-03-30T03:10:14.946Z,10.87
2023-03-30T03:13:16.797Z,11.00
2023-03-30T03:16:18.461Z,10.93
2023-03-30T03:19:20.005Z,11.11
2023-03-30T03:22:21.619Z,11.12
2023-03-30T03:25:23.117Z,10.75
2023-03-30T03:28:24.631Z,10.60
2023-03-30T03:31:27.319Z,10.64
2023-03-30T03:34:31.697Z,10.89
2023-03-30T03:37:33.205Z,10.89
2023-03-30T03:40:34.695Z,11.01
2023-03-30T03:43:46.617Z,10.99
2023-03-30T03:46:48.336Z,11.08
2023-03-30T03:49:49.818Z,11.09
2023-03-30T03:52:51.301Z,11.08
2023-03-30T03:55:52.793Z,11.01
2023-03-30T03:58:54.266Z,10.99
2023-03-30T04:01:55.834Z,10.98
2023-03-30T04:04:57.780Z,10.91
2023-03-30T04:07:59.314Z,10.93
2023-03-30T04:11:08.274Z,10.90
2023-03-30T04:14:09.771Z,10.92
2023-03-30T04:17:11.769Z,10.69
2023-03-30T04:20:13.286Z,10.53
2023-03-30T04:23:16.490Z,10.48
2023-03-30T04:26:18.035Z,10.56
2023-03-30T04:29:20.758Z,10.46
2023-03-30T04:32:22.274Z,10.56
2023-03-30T04:35:23.762Z,10.55
2023-03-30T04:38:25.231Z,10.73
2023-03-30T04:41:33.758Z,10.77
2023-03-30T04:44:35.511Z,10.77
2023-03-30T04:47:37.886Z,10.86
2023-03-30T04:50:39.396Z,10.83
2023-03-30T04:53:43.265Z,10.80
2023-03-30T04:56:44.792Z,10.82
2023-03-30T04:59:46.558Z,10.83
2023-03-30T05:02:48.116Z,10.75
2023-03-30T05:05:49.646Z,10.58
2023-03-30T05:08:51.439Z,10.44
2023-03-30T05:11:52.937Z,10.48
2023-03-30T05:14:54.431Z,10.55
2023-03-30T05:17:56.638Z,10.51
2023-03-30T05:20:58.725Z,10.38
2023-03-30T05:24:00.338Z,10.51
2023-03-30T05:27:02.401Z,10.61
2023-03-30T05:30:04.411Z,10.48
2023-03-30T05:33:05.977Z,10.47
2023-03-30T05:36:07.767Z,10.53
2023-03-30T05:39:09.301Z,10.59
2023-03-30T05:42:11.659Z,10.53
2023-03-30T05:45:13.186Z,10.44
2023-03-30T05:48:14.636Z,10.40
2023-03-30T05:51:16.456Z,10.45
2023-03-30T05:54:17.890Z,10.44
2023-03-30T05:57:19.428Z,10.41
2023-03-30T06:00:22.589Z,10.50
2023-03-30T06:03:24.187Z,10.43
2023-03-30T06:06:25.799Z,10.53
2023-03-30T06:09:27.334Z,10.37
2023-03-30T06:12:28.805Z,10.39
2023-03-30T06:15:30.353Z,10.39
2023-03-30T06:18:31.850Z,10.32
2023-03-30T06:21:33.348Z,10.46
2023-03-30T06:24:34.902Z,10.64
2023-03-30T06:27:36.467Z,10.73
2023-03-30T06:30:38.786Z,10.62
2023-03-30T06:33:41.758Z,10.61
2023-03-30T06:36:45.978Z,10.55
2023-03-30T06:39:47.897Z,10.66
2023-03-30T06:42:49.361Z,10.76
2023-03-30T06:45:55.092Z,10.94
2023-03-30T06:48:57.001Z,10.97
2023-03-30T06:51:59.566Z,11.13
2023-03-30T06:55:04.022Z,11.21
2023-03-30T06:58:05.514Z,11.29
2023-03-30T07:01:13.825Z,11.31
2023-03-30T07:04:16.026Z,11.28
2023-03-30T07:07:18.023Z,11.28
2023-03-30T07:10:19.567Z,11.34
2023-03-30T07:13:21.204Z,11.21
2023-03-30T07:16:22.767Z,11.20
2023-03-30T07:19:24.256Z,11.18
2023-03-30T07:22:25.999Z,11.23
2023-03-30T07:25:27.526Z,11.16
2023-03-30T07:28:29.062Z,11.22
2023-03-30T07:31:30.587Z,11.20
2023-03-30T07:34:33.472Z,11.22
2023-03-30T07:37:35.585Z,11.12
2023-03-30T07:40:36.942Z,11.07
2023-03-30T07:43:40.533Z,11.08
2023-03-30T07:46:42.388Z,10.86
2023-03-30T07:49:43.919Z,10.89
2023-03-30T07:52:45.406Z,11.03
2023-03-30T07:55:47.602Z,11.09
2023-03-30T07:58:48.986Z,11.10
2023-03-30T08:01:51.970Z,11.15
2023-03-30T08:04:53.546Z,11.06
2023-03-30T08:07:55.167Z,11.05
2023-03-30T08:10:56.650Z,11.14
2023-03-30T08:13:58.088Z,11.18
2023-03-30T08:16:59.600Z,11.20
2023-03-30T08:20:01.864Z,10.98
2023-03-30T08:23:03.876Z,10.96
2023-03-30T08:26:05.366Z,10.85
2023-03-30T08:29:07.051Z,10.66
2023-03-30T08:32:08.587Z,10.81
2023-03-30T08:35:10.162Z,10.91
2023-03-30T08:38:12.232Z,11.02
2023-03-30T08:41:28.223Z,11.05
2023-03-30T08:44:39.714Z,10.96
2023-03-30T08:47:43.321Z,11.10
2023-03-30T08:50:48.075Z,11.14
2023-03-30T08:53:57.479Z,11.18
2023-03-30T08:57:26.837Z,11.27
2023-03-30T09:00:49.969Z,11.36
2023-03-30T09:04:09.560Z,11.36
2023-03-30T09:07:46.669Z,11.65
2023-03-30T09:11:02.680Z,11.91
2023-03-30T09:14:05.360Z,12.03
2023-03-30T09:17:14.970Z,12.01
2023-03-30T09:20:23.047Z,12.07
2023-03-30T09:23:26.813Z,12.03
2023-03-30T09:26:50.297Z,11.89
2023-03-30T09:29:51.802Z,11.85
2023-03-30T09:33:17.716Z,11.88
2023-03-30T09:36:38.355Z,11.78
2023-03-30T09:39:41.593Z,11.82
2023-03-30T09:42:48.092Z,11.77
2023-03-30T09:45:49.590Z,11.68
2023-03-30T09:48:51.354Z,11.70
2023-03-30T09:51:55.205Z,11.72
2023-03-30T09:54:57.374Z,11.71
2023-03-30T09:58:18.509Z,11.63
2023-03-30T10:01:20.554Z,11.63
2023-03-30T10:04:22.133Z,11.69
2023-03-30T10:07:25.115Z,11.34
2023-03-30T10:10:26.455Z,11.44
2023-03-30T10:13:32.240Z,11.46
2023-03-30T10:16:33.980Z,11.23
2023-03-30T10:19:38.016Z,11.18
2023-03-30T10:22:53.966Z,11.25
2023-03-30T10:25:55.454Z,11.35
2023-03-30T10:28:57.635Z,11.42
2023-03-30T10:32:00.646Z,11.51
2023-03-30T10:35:05.356Z,11.50
2023-03-30T10:38:07.002Z,11.43
2023-03-30T10:41:13.782Z,11.23
2023-03-30T10:44:43.146Z,11.22
2023-03-30T10:48:06.633Z,11.38
2023-03-30T10:51:25.590Z,11.59
2023-03-30T10:54:39.613Z,11.32
2023-03-30T10:58:04.258Z,11.56
2023-03-30T11:01:36.662Z,11.25
2023-03-30T11:04:47.041Z,11.24
2023-03-30T11:08:04.075Z,11.34
2023-03-30T11:11:06.012Z,11.29
2023-03-30T11:14:10.630Z,11.31
2023-03-30T11:17:16.606Z,11.22
2023-03-30T11:20:29.342Z,11.46
2023-03-30T11:23:39.013Z,11.57
2023-03-30T11:26:47.398Z,11.76
2023-03-30T11:30:07.820Z,11.58
2023-03-30T11:33:36.164Z,11.75
2023-03-30T11:36:59.392Z,11.48
2023-03-30T11:40:17.541Z,11.91
2023-03-30T11:43:19.911Z,11.85
2023-03-30T11:46:30.309Z,11.96
2023-03-30T11:50:03.047Z,11.92
2023-03-30T11:53:25.632Z,12.03
2023-03-30T11:56:52.085Z,12.07
2023-03-30T12:00:01.797Z,12.01
2023-03-30T12:03:28.420Z,11.88
2023-03-30T12:06:34.613Z,11.83
2023-03-30T12:09:51.661Z,11.82
2023-03-30T12:12:55.573Z,11.82
2023-03-30T12:16:02.552Z,12.02
2023-03-30T12:19:04.434Z,12.27
2023-03-30T12:22:31.857Z,12.82
2023-03-30T12:26:09.999Z,12.69
2023-03-30T12:32:22.852Z,12.49
2023-03-30T12:35:49.409Z,12.54
2023-03-30T12:38:50.991Z,12.46
2023-03-30T12:42:04.349Z,12.35
2023-03-30T12:45:21.172Z,12.51
2023-03-30T12:48:59.528Z,12.36
2023-03-30T12:52:21.590Z,13.02
2023-03-30T12:55:44.647Z,13.58
2023-03-30T12:58:58.458Z,13.37
2023-03-30T13:02:31.238Z,13.06
2023-03-30T13:05:34.599Z,12.97
2023-03-30T13:08:40.733Z,12.92
2023-03-30T13:11:43.845Z,12.89
2023-03-30T13:14:46.373Z,13.91
2023-03-30T13:18:00.838Z,16.26
2023-03-30T13:21:26.071Z,17.12
2023-03-30T13:24:30.587Z,15.90
2023-03-30T13:27:34.340Z,15.08
2023-03-30T13:30:35.927Z,15.82
2023-03-30T13:33:37.842Z,15.17
2023-03-30T13:36:48.435Z,14.72
2023-03-30T13:40:21.817Z,14.35
2023-03-30T13:43:58.186Z,14.35
2023-03-30T13:47:09.698Z,14.08
2023-03-30T13:50:17.156Z,14.20
2023-03-30T13:53:18.651Z,14.24
2023-03-30T13:56:20.299Z,14.11
2023-03-30T13:59:22.855Z,13.94
2023-03-30T14:02:24.395Z,13.86
2023-03-30T14:05:27.774Z,13.81
2023-03-30T14:08:34.152Z,13.83
2023-03-30T14:11:40.378Z,14.00
2023-03-30T14:14:46.639Z,13.94
2023-03-30T14:17:55.436Z,13.68
2023-03-30T14:20:58.155Z,14.21
2023-03-30T14:23:59.640Z,14.83
2023-03-30T14:27:21.343Z,16.30
2023-03-30T14:30:29.426Z,16.66
2023-03-30T14:33:32.932Z,17.15
2023-03-30T14:36:34.435Z,17.35
2023-03-30T14:39:40.478Z,16.64
2023-03-30T14:42:42.730Z,15.55
2023-03-30T14:45:44.295Z,15.35
2023-03-30T14:48:47.672Z,13.90
2023-03-30T14:51:51.898Z,13.70
2023-03-30T14:55:06.084Z,14.16
2023-03-30T14:58:13.596Z,14.20
2023-03-30T15:01:16.987Z,14.04
2023-03-30T15:04:18.919Z,13.93
2023-03-30T15:07:23.247Z,14.13
2023-03-30T15:10:35.387Z,13.96
2023-03-30T15:13:40.175Z,14.02
2023-03-30T15:16:41.764Z,14.52
2023-03-30T15:19:43.217Z,14.55
2023-03-30T15:22:49.113Z,14.60
2023-03-30T15:25:50.666Z,14.27
2023-03-30T15:28:53.654Z,14.65
2023-03-30T15:32:05.378Z,14.49
2023-03-30T15:35:16.089Z,14.28
2023-03-30T15:38:17.749Z,14.18
2023-03-30T15:41:22.344Z,14.15
2023-03-30T15:44:24.156Z,14.07
2023-03-30T15:47:25.723Z,14.22
2023-03-30T15:50:27.288Z,14.05
2023-03-30T15:53:39.058Z,13.94
2023-03-30T15:56:41.575Z,13.84
2023-03-30T15:59:49.944Z,13.81
2023-03-30T16:02:57.687Z,13.73
2023-03-30T16:06:00.652Z,13.62
2023-03-30T16:09:02.131Z,13.47
2023-03-30T16:12:03.747Z,13.44
2023-03-30T16:15:05.646Z,13.29
2023-03-30T16:18:07.156Z,13.15
2023-03-30T16:21:10.766Z,12.76
2023-03-30T16:24:12.277Z,12.62
2023-03-30T16:27:14.715Z,12.43
2023-03-30T16:30:19.013Z,12.38
2023-03-30T16:33:20.451Z,12.17
2023-03-30T16:36:22.511Z,12.09
2023-03-30T16:39:24.939Z,11.89
2023-03-30T16:42:27.392Z,11.98
2023-03-30T16:45:28.929Z,11.98
2023-03-30T16:48:30.387Z,11.83
2023-03-30T16:51:31.879Z,11.67
2023-03-30T16:54:33.438Z,11.78
2023-03-30T16:57:35.023Z,11.51
2023-03-30T17:00:39.622Z,11.38
2023-03-30T17:03:42.302Z,11.17
2023-03-30T17:06:43.764Z,11.10
2023-03-30T17:09:45.494Z,10.95
2023-03-30T17:12:46.947Z,10.96
2023-03-30T17:15:48.419Z,11.02
2023-03-30T17:18:49.847Z,10.81
2023-03-30T17:21:51.794Z,10.75
2023-03-30T17:24:53.329Z,10.77
2023-03-30T17:27:55.496Z,10.69
2023-03-30T17:31:00.425Z,10.73
2023-03-30T17:34:01.932Z,10.77
2023-03-30T17:37:03.434Z,10.67
2023-03-30T17:40:19.728Z,10.60
2023-03-30T17:43:21.432Z,10.78
2023-03-30T17:46:23.039Z,10.70
2023-03-30T17:49:24.542Z,10.83
2023-03-30T17:52:30.148Z,10.80
2023-03-30T17:55:32.675Z,10.78
2023-03-30T17:58:35.285Z,10.74
2023-03-30T18:01:36.810Z,10.72
2023-03-30T18:04:38.296Z,10.75
2023-03-30T18:07:39.947Z,10.68
2023-03-30T18:10:41.894Z,10.62
2023-03-30T18:13:43.417Z,10.50
2023-03-30T18:16:45.996Z,10.41
2023-03-30T18:19:47.726Z,10.47
2023-03-30T18:22:49.436Z,10.41
2023-03-30T18:25:51.349Z,10.35
2023-03-30T18:28:52.880Z,10.38
2023-03-30T18:31:54.413Z,10.25
2023-03-30T18:34:55.949Z,10.28
2023-03-30T18:38:00.885Z,10.21
2023-03-30T18:41:02.453Z,10.20
2023-03-30T18:44:04.253Z,10.09
2023-03-30T18:47:05.772Z,10.11
2023-03-30T18:50:39.938Z,10.13
2023-03-30T18:53:41.431Z,10.03
2023-03-30T18:56:44.073Z,9.99
2023-03-30T18:59:45.559Z,9.83
2023-03-30T19:02:47.265Z,9.82
2023-03-30T19:05:49.231Z,9.81
2023-03-30T19:08:50.850Z,9.74
2023-03-30T19:11:52.359Z,9.78
2023-03-30T19:14:53.855Z,9.80
2023-03-30T19:17:55.433Z,9.91
2023-03-30T19:20:57.478Z,9.75
2023-03-30T19:23:58.949Z,9.79
2023-03-30T19:27:00.442Z,9.60
2023-03-30T19:30:02.054Z,9.63
2023-03-30T19:33:05.755Z,9.47
2023-03-30T19:36:07.330Z,9.37
2023-03-30T19:39:08.879Z,9.47
2023-03-30T19:42:13.917Z,9.31
2023-03-30T19:45:17.656Z,9.25
2023-03-30T19:48:19.133Z,9.20
2023-03-30T19:51:21.808Z,9.05
2023-03-30T19:54:26.682Z,8.98
2023-03-30T19:57:28.830Z,9.02
2023-03-30T20:00:35.183Z,9.07
2023-03-30T20:03:37.101Z,9.11
2023-03-30T20:06:39.233Z,9.01
2023-03-30T20:09:41.164Z,8.92
2023-03-30T20:12:42.744Z,8.95
2023-03-30T20:15:45.241Z,8.77
2023-03-30T20:18:47.928Z,8.72
2023-03-30T20:21:49.403Z,8.77
2023-03-30T20:24:50.863Z,8.73
2023-03-30T20:27:52.875Z,8.74
2023-03-30T20:30:57.506Z,8.68
2023-03-30T20:33:59.044Z,8.51
2023-03-30T20:37:00.548Z,8.50
2023-03-30T20:40:03.861Z,8.69
2023-03-30T20:43:10.558Z,8.48
2023-03-30T20:46:13.999Z,8.48
2023-03-30T20:49:15.727Z,8.47
2023-03-30T20:52:17.366Z,8.41
2023-03-30T20:55:18.859Z,8.45
2023-03-30T20:58:22.248Z,8.63
2023-03-30T21:01:26.483Z,8.69
2023-03-30T21:04:28.605Z,8.58
2023-03-30T21:07:30.193Z,8.55
2023-03-30T21:10:31.691Z,8.46
2023-03-30T21:13:33.638Z,8.55
2023-03-30T21:16:36.757Z,8.47
2023-03-30T21:19:38.287Z,8.19
2023-03-30T21:22:39.766Z,8.29
2023-03-30T21:25:42.067Z,8.29
2023-03-30T21:28:43.514Z,8.26
2023-03-30T21:31:45.034Z,8.22
2023-03-30T21:34:46.509Z,8.22
2023-03-30T21:37:47.966Z,8.23
2023-03-30T21:41:06.496Z,8.22
2023-03-30T21:44:08.108Z,8.28
2023-03-30T21:47:09.673Z,8.19
2023-03-30T21:50:11.246Z,8.22
2023-03-30T21:53:12.713Z,8.31
2023-03-30T21:56:14.361Z,8.27
2023-03-30T21:59:15.890Z,8.34
2023-03-30T22:02:17.413Z,8.19
2023-03-30T22:05:18.961Z,8.09
2023-03-30T22:08:20.486Z,7.97
2023-03-30T22:11:23.490Z,7.92
2023-03-30T22:14:24.959Z,7.84
2023-03-30T22:17:35.154Z,7.80
2023-03-30T22:20:39.023Z,7.87
2023-03-30T22:23:40.572Z,7.81
2023-03-30T22:26:42.038Z,7.95
2023-03-30T22:29:43.494Z,7.80
2023-03-30T22:32:45.027Z,7.86
2023-03-30T22:35:46.894Z,7.92
2023-03-30T22:38:48.739Z,7.99
2023-03-30T22:41:50.365Z,7.93
2023-03-30T22:44:51.869Z,7.94
2023-03-30T22:47:53.412Z,7.98
2023-03-30T22:50:54.945Z,7.92
2023-03-30T22:53:58.071Z,7.87
2023-03-30T22:56:59.667Z,8.12
2023-03-30T23:00:06.840Z,8.08
2023-03-30T23:03:08.449Z,8.20
2023-03-30T23:06:10.178Z,8.17
2023-03-30T23:09:13.541Z,8.13
2023-03-30T23:12:15.113Z,8.06
2023-03-30T23:15:18.529Z,8.09
2023-03-30T23:18:20.412Z,8.09
2023-03-30T23:21:22.312Z,8.13
2023-03-30T23:24:24.038Z,8.20
2023-03-30T23:27:25.552Z,8.24
2023-03-30T23:30:27.070Z,8.17
2023-03-30T23:33:28.597Z,8.18
2023-03-30T23:36:30.736Z,8.25
2023-03-30T23:39:33.020Z,8.34
2023-03-30T23:42:34.692Z,8.19
2023-03-30T23:45:41.133Z,8.03
2023-03-30T23:48:42.727Z,8.22
2023-03-30T23:51:44.906Z,8.04
2023-03-30T23:54:52.584Z,8.22
2023-03-30T23:57:54.058Z,8.33
